createdAt,value
2019-05-09T00:00:40.207Z,4.90
2019-05-09T00:03:17.365Z,5.25
2019-05-09T00:05:51.450Z,5.72
2019-05-09T00:08:29.876Z,4.87
2019-05-09T00:11:03.607Z,5.40
2019-05-09T00:16:33.550Z,5.03
2019-05-09T00:19:04.467Z,4.80
2019-05-09T00:21:37.437Z,4.78
2019-05-09T00:24:13.856Z,4.42
2019-05-09T00:26:55.847Z,4.97
2019-05-09T00:29:33.458Z,5.30
2019-05-09T00:32:07.531Z,5.05
2019-05-09T00:34:56.544Z,5.67
2019-05-09T00:37:53.630Z,5.10
2019-05-09T00:40:54.958Z,5.42
2019-05-09T00:43:17.746Z,5.30
2019-05-09T00:46:04.335Z,5.55
2019-05-09T00:48:41.277Z,4.95
2019-05-09T00:51:15.543Z,5.83
2019-05-09T00:53:47.838Z,4.87
2019-05-09T00:56:20.538Z,5.17
2019-05-09T01:01:27.798Z,4.70
2019-05-09T01:04:00.993Z,4.80
2019-05-09T01:06:34.087Z,5.65
2019-05-09T01:09:06.954Z,4.97
2019-05-09T01:11:36.803Z,5.28
2019-05-09T01:14:14.177Z,4.97
2019-05-09T01:16:49.538Z,4.97
2019-05-09T01:19:23.948Z,5.53
2019-05-09T01:22:03.690Z,5.22
2019-05-09T01:24:35.617Z,5.72
2019-05-09T01:27:06.628Z,5.90
2019-05-09T01:29:37.748Z,5.87
2019-05-09T01:34:56.034Z,5.47
2019-05-09T01:37:30.495Z,5.92
2019-05-09T01:39:58.780Z,6.05
2019-05-09T01:42:33.640Z,6.15
2019-05-09T01:45:03.807Z,5.72
2019-05-09T01:47:48.130Z,5.42
2019-05-09T01:50:29.218Z,6.03
2019-05-09T01:53:06.032Z,5.25
2019-05-09T01:55:54.384Z,5.80
2019-05-09T01:58:27.293Z,5.53
2019-05-09T02:00:58.751Z,5.35
2019-05-09T02:03:30.084Z,5.40
2019-05-09T02:06:03.462Z,5.45
2019-05-09T02:08:35.139Z,5.60
2019-05-09T02:13:34.734Z,5.97
2019-05-09T02:16:13.975Z,5.33
2019-05-09T02:18:46.227Z,5.35
2019-05-09T02:21:20.721Z,6.53
2019-05-09T02:23:54.988Z,5.65
2019-05-09T02:26:27.724Z,6.15
2019-05-09T02:28:59.011Z,6.33
2019-05-09T02:31:35.352Z,6.55
2019-05-09T02:34:14.806Z,6.12
2019-05-09T02:36:58.785Z,6.00
2019-05-09T02:39:30.264Z,6.65
2019-05-09T02:42:08.774Z,6.03
2019-05-09T02:44:35.473Z,6.40
2019-05-09T02:47:19.620Z,6.17
2019-05-09T02:49:59.131Z,6.03
2019-05-09T02:52:33.271Z,5.87
2019-05-09T02:55:11.203Z,6.03
2019-05-09T02:57:44.674Z,5.90
2019-05-09T03:00:30.120Z,5.42
2019-05-09T03:03:09.340Z,5.58
2019-05-09T03:05:41.842Z,5.72
2019-05-09T03:08:13.334Z,6.15
2019-05-09T03:10:48.775Z,6.17
2019-05-09T03:13:21.674Z,5.92
2019-05-09T03:15:58.589Z,6.00
2019-05-09T03:18:34.897Z,5.92
2019-05-09T03:21:30.349Z,6.08
2019-05-09T03:24:04.524Z,5.95
2019-05-09T03:26:41.521Z,5.25
2019-05-09T03:29:19.059Z,5.80
2019-05-09T03:31:52.638Z,6.03
2019-05-09T03:34:30.094Z,5.83
2019-05-09T03:37:03.477Z,5.72
2019-05-09T03:39:33.437Z,5.72
2019-05-09T03:42:09.131Z,6.12
2019-05-09T03:44:43.255Z,5.95
2019-05-09T03:47:37.645Z,5.83
2019-05-09T03:50:12.106Z,6.55
2019-05-09T03:52:43.799Z,7.12
2019-05-09T03:55:18.060Z,7.15
2019-05-09T03:58:07.571Z,7.33
2019-05-09T04:00:34.030Z,7.37
2019-05-09T04:03:11.878Z,7.40
2019-05-09T04:05:58.419Z,7.00
2019-05-09T04:08:19.556Z,7.50
2019-05-09T04:10:54.227Z,5.87
2019-05-09T04:13:28.398Z,6.50
2019-05-09T04:15:58.402Z,6.45
2019-05-09T04:21:00.805Z,6.15
2019-05-09T04:23:33.825Z,6.47
2019-05-09T04:26:08.419Z,6.20
2019-05-09T04:28:39.976Z,6.90
2019-05-09T04:31:12.427Z,6.62
2019-05-09T04:33:47.467Z,6.72
2019-05-09T04:36:22.853Z,6.00
2019-05-09T04:39:00.787Z,5.87
2019-05-09T04:41:30.808Z,5.83
2019-05-09T04:44:05.135Z,6.28
2019-05-09T04:46:37.252Z,6.62
2019-05-09T04:49:09.881Z,6.10
2019-05-09T04:51:49.984Z,6.12
2019-05-09T04:54:22.860Z,6.25
2019-05-09T04:59:38.161Z,7.20
2019-05-09T05:02:18.688Z,6.33
2019-05-09T05:04:58.383Z,6.97
2019-05-09T05:07:28.533Z,6.85
2019-05-09T05:10:00.304Z,7.55
2019-05-09T05:12:32.820Z,6.75
2019-05-09T05:15:27.551Z,6.72
2019-05-09T05:17:59.227Z,6.95
2019-05-09T05:20:32.884Z,6.75
2019-05-09T05:23:10.754Z,7.28
2019-05-09T05:25:43.791Z,6.53
2019-05-09T05:28:48.920Z,6.30
2019-05-09T05:30:53.548Z,7.20
2019-05-09T05:36:10.341Z,6.97
2019-05-09T05:38:48.208Z,6.60
2019-05-09T05:41:24.138Z,6.50
2019-05-09T05:44:08.466Z,6.28
2019-05-09T05:46:43.584Z,6.53
2019-05-09T05:49:18.604Z,6.28
2019-05-09T05:51:59.497Z,6.10
2019-05-09T05:54:31.742Z,5.83
2019-05-09T05:57:38.580Z,6.00
2019-05-09T05:59:41.081Z,6.05
2019-05-09T06:02:27.962Z,6.35
2019-05-09T06:07:52.980Z,5.35
2019-05-09T06:10:22.939Z,6.22
2019-05-09T06:15:29.466Z,6.10
2019-05-09T06:18:07.987Z,5.37
2019-05-09T06:20:41.523Z,6.03
2019-05-09T06:23:17.870Z,5.70
2019-05-09T06:25:48.598Z,5.85
2019-05-09T06:28:20.921Z,5.50
2019-05-09T06:30:53.012Z,6.05
2019-05-09T06:33:22.869Z,5.72
2019-05-09T06:38:29.890Z,5.75
2019-05-09T06:41:02.720Z,5.58
2019-05-09T06:43:39.201Z,5.10
2019-05-09T06:46:12.613Z,5.17
2019-05-09T06:48:44.005Z,6.05
2019-05-09T06:51:18.086Z,5.50
2019-05-09T06:53:51.048Z,5.80
2019-05-09T06:56:22.689Z,5.15
2019-05-09T06:58:58.305Z,5.75
2019-05-09T07:01:30.753Z,5.55
2019-05-09T07:04:13.915Z,5.15
2019-05-09T07:06:48.270Z,5.37
2019-05-09T07:09:33.578Z,5.47
2019-05-09T07:12:07.955Z,5.95
2019-05-09T07:14:41.930Z,5.35
2019-05-09T07:17:13.324Z,5.45
2019-05-09T07:19:48.862Z,6.22
2019-05-09T07:22:32.560Z,5.33
2019-05-09T07:25:10.954Z,5.60
2019-05-09T07:27:40.055Z,6.50
2019-05-09T07:30:18.006Z,6.72
2019-05-09T07:32:57.852Z,7.17
2019-05-09T07:36:13.731Z,6.28
2019-05-09T07:38:04.007Z,6.72
2019-05-09T07:40:30.927Z,6.47
2019-05-09T07:43:02.407Z,6.45
2019-05-09T07:45:34.995Z,6.33
2019-05-09T07:48:15.149Z,7.37
2019-05-09T07:53:18.635Z,5.80
2019-05-09T07:55:50.134Z,6.53
2019-05-09T07:58:28.343Z,6.78
2019-05-09T08:01:01.354Z,8.88
2019-05-09T08:03:28.325Z,7.15
2019-05-09T08:05:59.777Z,5.45
2019-05-09T08:11:08.795Z,5.80
2019-05-09T08:13:44.966Z,4.62
2019-05-09T08:16:20.763Z,4.83
2019-05-09T08:18:53.515Z,5.47
2019-05-09T08:21:27.666Z,4.70
2019-05-09T08:23:59.295Z,4.95
2019-05-09T08:26:30.637Z,5.53
2019-05-09T08:29:02.020Z,4.90
2019-05-09T08:34:08.315Z,5.12
2019-05-09T08:36:39.025Z,6.12
2019-05-09T08:39:13.211Z,6.08
2019-05-09T08:41:59.320Z,5.25
2019-05-09T08:44:41.881Z,5.65
2019-05-09T08:47:11.455Z,6.70
2019-05-09T08:52:19.416Z,6.92
2019-05-09T08:54:53.300Z,7.78
2019-05-09T08:57:37.527Z,7.08
2019-05-09T09:00:10.772Z,6.97
2019-05-09T09:03:21.056Z,7.05
2019-05-09T09:05:38.173Z,7.55
2019-05-09T09:08:15.026Z,7.72
2019-05-09T09:14:03.042Z,6.47
2019-05-09T09:16:42.598Z,6.65
2019-05-09T09:19:19.751Z,6.40
2019-05-09T09:22:14.545Z,6.87
2019-05-09T09:24:49.065Z,6.55
2019-05-09T09:27:27.348Z,6.20
2019-05-09T09:29:58.701Z,5.75
2019-05-09T09:32:32.937Z,6.08
2019-05-09T09:45:22.589Z,5.75
2019-05-09T09:50:43.056Z,5.45
2019-05-09T09:53:59.378Z,5.03
2019-05-09T10:02:02.741Z,5.95
2019-05-09T10:04:48.421Z,5.17
2019-05-09T10:07:40.888Z,5.72
2019-05-09T10:53:36.299Z,3.50
2019-05-09T10:59:07.464Z,3.47
2019-05-09T11:01:39.820Z,3.50
2019-05-09T11:04:09.600Z,3.30
2019-05-09T11:21:47.924Z,3.58
2019-05-09T15:31:54.471Z,6.45
2019-05-09T15:37:29.426Z,6.53
2019-05-09T15:40:17.602Z,6.83
2019-05-09T15:42:48.112Z,6.87
2019-05-09T15:45:22.378Z,7.42
2019-05-09T15:47:53.828Z,7.62
2019-05-09T15:50:58.345Z,7.87
2019-05-09T15:53:15.389Z,8.40
2019-05-09T15:55:48.818Z,8.18
2019-05-09T15:58:22.356Z,7.95
2019-05-09T16:00:54.747Z,9.08
2019-05-09T16:03:27.907Z,8.45
2019-05-09T16:06:50.257Z,9.10
2019-05-09T16:08:47.977Z,8.70
2019-05-09T16:11:41.566Z,9.05
2019-05-09T16:14:08.734Z,8.65
2019-05-09T16:16:39.842Z,8.98
2019-05-09T16:19:23.834Z,9.28
2019-05-09T16:21:53.723Z,9.05
2019-05-09T16:24:30.656Z,9.13
2019-05-09T16:27:08.381Z,9.58
2019-05-09T16:29:38.313Z,10.18
2019-05-09T16:32:12.045Z,8.93
2019-05-09T16:34:43.425Z,9.90
2019-05-09T16:37:17.470Z,9.65
2019-05-09T16:40:01.933Z,9.48
2019-05-09T16:42:33.968Z,10.38
2019-05-09T16:45:08.066Z,10.32
2019-05-09T16:47:42.381Z,9.98
2019-05-09T16:50:12.606Z,10.18
2019-05-09T16:52:44.052Z,10.03
2019-05-09T16:55:18.007Z,10.08
2019-05-09T16:57:57.321Z,10.93
2019-05-09T17:00:38.157Z,10.20
2019-05-09T17:03:09.649Z,9.93
2019-05-09T17:05:42.641Z,9.08
2019-05-09T17:08:12.647Z,9.03
2019-05-09T17:10:44.036Z,9.33
2019-05-09T17:13:18.216Z,9.25
2019-05-09T17:15:47.340Z,7.90
2019-05-09T17:18:18.852Z,7.58
2019-05-09T17:21:15.080Z,8.13
2019-05-09T17:23:33.952Z,8.73
2019-05-09T17:26:03.502Z,8.28
2019-05-09T17:28:33.457Z,7.58
2019-05-09T17:31:19.265Z,7.90
2019-05-09T17:33:38.995Z,8.33
2019-05-09T17:36:11.742Z,7.65
2019-05-09T17:38:41.537Z,8.63
2019-05-09T17:41:24.463Z,8.00
2019-05-09T17:43:52.722Z,7.80
2019-05-09T17:46:27.392Z,7.87
2019-05-09T17:48:58.313Z,8.45
2019-05-09T17:51:34.012Z,8.43
2019-05-09T17:54:00.353Z,8.10
2019-05-09T17:56:31.685Z,7.78
2019-05-09T17:59:01.539Z,8.85
2019-05-09T18:01:31.169Z,8.95
2019-05-09T18:04:02.737Z,8.83
2019-05-09T18:06:34.828Z,8.65
2019-05-09T18:09:08.246Z,9.88
2019-05-09T18:11:39.104Z,8.38
2019-05-09T18:14:10.468Z,8.53
2019-05-09T18:16:40.383Z,7.17
2019-05-09T18:19:10.731Z,7.35
2019-05-09T18:21:50.410Z,7.40
2019-05-09T18:24:11.857Z,7.42
2019-05-09T18:29:14.805Z,8.40
2019-05-09T18:38:02.669Z,9.35
2019-05-09T18:40:36.532Z,8.53
2019-05-09T18:43:14.833Z,9.10
2019-05-09T18:46:02.220Z,9.18
2019-05-09T18:48:43.916Z,9.53
2019-05-09T18:51:15.803Z,9.18
2019-05-09T18:53:45.522Z,10.08
2019-05-09T18:56:19.714Z,10.10
2019-05-09T18:58:55.709Z,9.85
2019-05-09T19:01:28.590Z,9.05
2019-05-09T19:04:03.408Z,10.32
2019-05-09T19:06:41.372Z,10.90
2019-05-09T19:09:51.920Z,10.08
2019-05-09T19:15:12.933Z,11.40
2019-05-09T19:17:49.854Z,12.68
2019-05-09T19:20:37.016Z,11.85
2019-05-09T19:23:06.866Z,11.68
2019-05-09T19:25:38.284Z,12.10
2019-05-09T19:30:38.315Z,12.05
2019-05-09T19:33:08.237Z,11.05
2019-05-09T19:35:40.324Z,10.60
2019-05-09T19:40:54.137Z,10.72
2019-05-09T19:43:26.005Z,11.80
2019-05-09T19:45:55.410Z,11.33
2019-05-09T19:48:25.141Z,11.15
2019-05-09T19:50:54.965Z,10.88
2019-05-09T19:55:53.720Z,12.60
2019-05-09T20:00:52.495Z,14.05
2019-05-09T20:03:22.216Z,14.45
2019-05-09T20:05:51.995Z,13.58
2019-05-09T20:08:22.174Z,13.83
2019-05-09T20:11:08.581Z,13.58
2019-05-09T20:13:54.770Z,13.93
2019-05-09T20:16:25.288Z,15.75
2019-05-09T20:18:54.977Z,15.85
2019-05-09T20:21:26.736Z,17.77
2019-05-09T20:23:58.927Z,16.60
2019-05-09T20:26:34.064Z,14.34
2019-05-09T20:29:03.769Z,16.50
2019-05-09T20:31:33.533Z,15.95
2019-05-09T20:34:03.199Z,16.05
2019-05-09T20:36:33.234Z,15.93
2019-05-09T20:39:04.144Z,16.67
2019-05-09T20:41:34.111Z,16.40
2019-05-09T20:44:04.259Z,15.88
2019-05-09T20:46:35.179Z,15.32
2019-05-09T20:49:05.387Z,15.38
2019-05-09T20:51:35.345Z,17.15
2019-05-09T20:56:40.446Z,16.00
2019-05-09T20:59:11.999Z,16.65
2019-05-09T21:04:12.425Z,17.00
2019-05-09T21:09:11.347Z,16.73
2019-05-09T21:11:41.259Z,15.78
2019-05-09T21:16:40.247Z,17.15
2019-05-09T21:21:40.250Z,15.25
2019-05-09T21:24:10.080Z,16.32
2019-05-09T21:26:40.026Z,16.85
2019-05-09T21:31:39.879Z,16.57
2019-05-09T21:34:09.787Z,17.60
2019-05-09T21:36:42.441Z,18.10
2019-05-09T21:39:12.192Z,18.42
2019-05-09T21:41:42.005Z,17.60
2019-05-09T21:44:13.273Z,19.10
2019-05-09T21:46:43.058Z,18.00
2019-05-09T21:49:14.277Z,17.82
2019-05-09T21:51:43.908Z,17.95
2019-05-09T21:54:13.629Z,17.25
2019-05-09T21:56:43.288Z,19.10
2019-05-09T21:59:12.933Z,18.82
2019-05-09T22:01:42.905Z,17.70
2019-05-09T22:06:45.564Z,18.50
2019-05-09T22:09:15.376Z,18.82
2019-05-09T22:16:45.826Z,17.40
2019-05-09T22:19:18.445Z,18.85
2019-05-09T22:21:48.097Z,18.52
2019-05-09T22:24:17.754Z,18.82
2019-05-09T22:26:49.074Z,19.30
2019-05-09T22:29:20.372Z,18.80
2019-05-09T22:31:50.003Z,18.57
2019-05-09T22:34:19.782Z,17.20
2019-05-09T22:36:49.548Z,18.45
2019-05-09T22:39:19.272Z,18.37
2019-05-09T22:41:48.974Z,20.23
2019-05-09T22:44:20.192Z,18.50
2019-05-09T22:46:49.843Z,20.45
2019-05-09T22:49:19.655Z,20.88
2019-05-09T22:54:19.761Z,19.80
2019-05-09T22:56:50.991Z,19.12
2019-05-09T22:59:22.294Z,19.20
2019-05-09T23:01:53.677Z,20.27
2019-05-09T23:04:24.889Z,19.92
2019-05-09T23:06:54.727Z,20.12
2019-05-09T23:09:24.436Z,19.00
2019-05-09T23:11:54.248Z,19.12
2019-05-09T23:16:52.560Z,19.30
2019-05-09T23:19:22.328Z,22.02
2019-05-09T23:21:52.085Z,23.77
2019-05-09T23:24:28.549Z,24.82
2019-05-09T23:26:56.683Z,26.50
2019-05-09T23:29:26.255Z,27.98
2019-05-09T23:32:12.336Z,27.42
2019-05-09T23:34:46.072Z,27.45
2019-05-09T23:37:25.159Z,25.91
2019-05-09T23:42:28.501Z,27.13
2019-05-09T23:44:58.120Z,26.17
2019-05-09T23:47:27.922Z,24.80
2019-05-09T23:49:57.559Z,24.50
2019-05-09T23:52:31.816Z,25.55
2019-05-09T23:58:07.133Z,25.10
